KHIO/HIO METAR and TAF weather

Enter ICAO airport designator
Station Type Date Time Source
KHIO METAR 2019/04/25 15:53 UTC NOAA

KHIO 251553Z 00000KT 10SM CLR 11/04 A3011 RMK AO2 SLP195 T01060039


Station Type Date Time Source
KHIO Decoded METAR 2019/04/25 15:53 UTC NOAA

PORTLAND-HILLSBORO AIRPORT, OR, United States (KHIO) 45-33N 122-57W 68M
Apr 25, 2019 - 11:53 AM EDT / 2019.04.25 1553 UTC
Wind: Calm:0
Visibility: 10 mile(s):0
Sky conditions: clear
Temperature: 51.1 F (10.6 C)
Dew Point: 39.0 F (3.9 C)
Relative Humidity: 63%
Pressure (altimeter): 30.11 in. Hg (1019 hPa)
ob: KHIO 251553Z 00000KT 10SM CLR 11/04 A3011 RMK AO2 SLP195 T01060039
cycle: 16

Station Type Date Time Source
KHIO TAF 2019/04/25 12:36 UTC NOAA

TAF KHIO 251135Z 2512/2612 VRB03KT P6SM SKC
FM252100 31006KT P6SM SCT250
FM260400 30004KT P6SM BKN100

Example: see airport list